sensor_id;sensor_type;location;lat;lon;timestamp;P1;durP1;ratioP1;P2;durP2;ratioP2
29574;SDS011;16507;51.046;6.406;2023-08-06T00:00:09;2.75;;;1.98;;
29574;SDS011;16507;51.046;6.406;2023-08-06T00:02:35;5.32;;;1.83;;
29574;SDS011;16507;51.046;6.406;2023-08-06T00:05:01;7.20;;;2.10;;
29574;SDS011;16507;51.046;6.406;2023-08-06T00:07:26;3.05;;;1.92;;
29574;SDS011;16507;51.046;6.406;2023-08-06T00:09:52;4.00;;;1.95;;
29574;SDS011;16507;51.046;6.406;2023-08-06T00:12:17;9.05;;;2.30;;
29574;SDS011;16507;51.046;6.406;2023-08-06T00:14:43;3.10;;;2.22;;
29574;SDS011;16507;51.046;6.406;2023-08-06T00:17:09;6.40;;;1.95;;
29574;SDS011;16507;51.046;6.406;2023-08-06T00:19:34;2.97;;;2.08;;
29574;SDS011;16507;51.046;6.406;2023-08-06T00:22:00;5.97;;;2.13;;
29574;SDS011;16507;51.046;6.406;2023-08-06T00:24:27;6.45;;;2.22;;
29574;SDS011;16507;51.046;6.406;2023-08-06T00:26:53;3.35;;;2.17;;
29574;SDS011;16507;51.046;6.406;2023-08-06T00:29:18;7.38;;;2.42;;
29574;SDS011;16507;51.046;6.406;2023-08-06T00:31:44;4.78;;;2.20;;
29574;SDS011;16507;51.046;6.406;2023-08-06T00:34:09;8.60;;;2.30;;
29574;SDS011;16507;51.046;6.406;2023-08-06T00:36:35;2.20;;;2.00;;
29574;SDS011;16507;51.046;6.406;2023-08-06T00:39:01;20.15;;;2.85;;
29574;SDS011;16507;51.046;6.406;2023-08-06T00:41:27;5.97;;;2.47;;
29574;SDS011;16507;51.046;6.406;2023-08-06T00:43:53;4.80;;;2.30;;
29574;SDS011;16507;51.046;6.406;2023-08-06T00:46:18;8.07;;;2.38;;
29574;SDS011;16507;51.046;6.406;2023-08-06T00:48:44;4.22;;;1.90;;
29574;SDS011;16507;51.046;6.406;2023-08-06T00:51:10;2.88;;;1.65;;
29574;SDS011;16507;51.046;6.406;2023-08-06T00:53:37;5.47;;;1.80;;
29574;SDS011;16507;51.046;6.406;2023-08-06T00:56:04;2.00;;;1.90;;
29574;SDS011;16507;51.046;6.406;2023-08-06T00:58:30;3.15;;;2.20;;
29574;SDS011;16507;51.046;6.406;2023-08-06T01:00:56;4.25;;;1.60;;
29574;SDS011;16507;51.046;6.406;2023-08-06T01:03:22;9.17;;;1.80;;
29574;SDS011;16507;51.046;6.406;2023-08-06T01:05:48;14.90;;;1.63;;
29574;SDS011;16507;51.046;6.406;2023-08-06T01:13:49;4.13;;;1.45;;
29574;SDS011;16507;51.046;6.406;2023-08-06T01:16:19;4.13;;;1.80;;
29574;SDS011;16507;51.046;6.406;2023-08-06T01:18:49;4.38;;;1.42;;
29574;SDS011;16507;51.046;6.406;2023-08-06T01:21:15;2.75;;;1.40;;
29574;SDS011;16507;51.046;6.406;2023-08-06T01:23:42;3.55;;;1.67;;
29574;SDS011;16507;51.046;6.406;2023-08-06T01:28:40;5.50;;;1.52;;
29574;SDS011;16507;51.046;6.406;2023-08-06T01:31:29;2.67;;;1.35;;
29574;SDS011;16507;51.046;6.406;2023-08-06T01:33:58;2.75;;;1.50;;
29574;SDS011;16507;51.046;6.406;2023-08-06T01:36:26;5.22;;;1.52;;
29574;SDS011;16507;51.046;6.406;2023-08-06T01:38:53;1.75;;;1.52;;
29574;SDS011;16507;51.046;6.406;2023-08-06T01:41:19;3.90;;;1.52;;
29574;SDS011;16507;51.046;6.406;2023-08-06T01:43:45;2.28;;;1.90;;
29574;SDS011;16507;51.046;6.406;2023-08-06T01:46:10;6.95;;;1.92;;
29574;SDS011;16507;51.046;6.406;2023-08-06T01:48:37;2.22;;;1.98;;
29574;SDS011;16507;51.046;6.406;2023-08-06T01:51:06;3.65;;;1.95;;
29574;SDS011;16507;51.046;6.406;2023-08-06T01:53:32;3.20;;;2.00;;
29574;SDS011;16507;51.046;6.406;2023-08-06T01:55:58;4.20;;;1.60;;
29574;SDS011;16507;51.046;6.406;2023-08-06T01:58:23;38.47;;;3.55;;
29574;SDS011;16507;51.046;6.406;2023-08-06T02:00:49;1.45;;;1.30;;
29574;SDS011;16507;51.046;6.406;2023-08-06T02:03:15;2.17;;;1.77;;
29574;SDS011;16507;51.046;6.406;2023-08-06T02:05:40;2.10;;;2.00;;
29574;SDS011;16507;51.046;6.406;2023-08-06T02:08:06;2.40;;;1.38;;
29574;SDS011;16507;51.046;6.406;2023-08-06T02:10:32;3.50;;;1.58;;
29574;SDS011;16507;51.046;6.406;2023-08-06T02:12:58;3.22;;;1.70;;
29574;SDS011;16507;51.046;6.406;2023-08-06T02:15:23;4.70;;;1.73;;
29574;SDS011;16507;51.046;6.406;2023-08-06T02:17:49;2.78;;;1.50;;
29574;SDS011;16507;51.046;6.406;2023-08-06T02:20:14;3.42;;;1.77;;
29574;SDS011;16507;51.046;6.406;2023-08-06T02:22:40;1.63;;;1.50;;
29574;SDS011;16507;51.046;6.406;2023-08-06T02:25:05;3.03;;;1.63;;
29574;SDS011;16507;51.046;6.406;2023-08-06T02:27:31;5.53;;;1.77;;
29574;SDS011;16507;51.046;6.406;2023-08-06T02:29:57;4.82;;;2.00;;
29574;SDS011;16507;51.046;6.406;2023-08-06T02:32:22;5.25;;;1.88;;
29574;SDS011;16507;51.046;6.406;2023-08-06T02:34:48;3.88;;;1.98;;
29574;SDS011;16507;51.046;6.406;2023-08-06T02:37:14;2.10;;;1.88;;
29574;SDS011;16507;51.046;6.406;2023-08-06T02:39:39;5.07;;;1.70;;
29574;SDS011;16507;51.046;6.406;2023-08-06T02:42:08;3.83;;;1.83;;
29574;SDS011;16507;51.046;6.406;2023-08-06T02:44:34;6.03;;;1.63;;
29574;SDS011;16507;51.046;6.406;2023-08-06T02:47:00;6.00;;;2.88;;
29574;SDS011;16507;51.046;6.406;2023-08-06T02:49:26;3.90;;;1.90;;
29574;SDS011;16507;51.046;6.406;2023-08-06T02:51:52;2.47;;;1.77;;
29574;SDS011;16507;51.046;6.406;2023-08-06T02:54:18;8.18;;;2.20;;
29574;SDS011;16507;51.046;6.406;2023-08-06T02:56:44;10.52;;;2.47;;
29574;SDS011;16507;51.046;6.406;2023-08-06T02:59:11;3.25;;;1.52;;
29574;SDS011;16507;51.046;6.406;2023-08-06T03:01:37;2.40;;;1.80;;
29574;SDS011;16507;51.046;6.406;2023-08-06T03:04:03;4.47;;;2.30;;
29574;SDS011;16507;51.046;6.406;2023-08-06T03:06:29;5.63;;;1.63;;
29574;SDS011;16507;51.046;6.406;2023-08-06T03:08:54;4.03;;;1.35;;
29574;SDS011;16507;51.046;6.406;2023-08-06T03:11:20;3.00;;;1.50;;
29574;SDS011;16507;51.046;6.406;2023-08-06T03:13:46;2.30;;;1.40;;
29574;SDS011;16507;51.046;6.406;2023-08-06T03:16:12;1.75;;;1.45;;
29574;SDS011;16507;51.046;6.406;2023-08-06T03:18:38;4.68;;;1.30;;
29574;SDS011;16507;51.046;6.406;2023-08-06T03:21:04;4.82;;;1.40;;
29574;SDS011;16507;51.046;6.406;2023-08-06T03:23:30;3.72;;;1.88;;
29574;SDS011;16507;51.046;6.406;2023-08-06T03:25:55;6.13;;;1.45;;
29574;SDS011;16507;51.046;6.406;2023-08-06T03:28:21;8.55;;;1.80;;
29574;SDS011;16507;51.046;6.406;2023-08-06T03:30:47;7.68;;;1.52;;
29574;SDS011;16507;51.046;6.406;2023-08-06T03:33:13;2.47;;;1.50;;
29574;SDS011;16507;51.046;6.406;2023-08-06T03:35:39;12.70;;;1.55;;
29574;SDS011;16507;51.046;6.406;2023-08-06T03:38:04;3.83;;;1.65;;
29574;SDS011;16507;51.046;6.406;2023-08-06T03:40:30;1.30;;;1.13;;
29574;SDS011;16507;51.046;6.406;2023-08-06T03:42:56;1.67;;;1.10;;
29574;SDS011;16507;51.046;6.406;2023-08-06T03:45:22;2.30;;;0.90;;
29574;SDS011;16507;51.046;6.406;2023-08-06T03:47:47;1.73;;;1.20;;
29574;SDS011;16507;51.046;6.406;2023-08-06T03:50:13;8.70;;;1.27;;
29574;SDS011;16507;51.046;6.406;2023-08-06T03:52:38;2.25;;;1.40;;
29574;SDS011;16507;51.046;6.406;2023-08-06T03:55:04;1.85;;;0.98;;
29574;SDS011;16507;51.046;6.406;2023-08-06T03:57:30;27.40;;;2.33;;
29574;SDS011;16507;51.046;6.406;2023-08-06T03:59:56;11.40;;;1.73;;
29574;SDS011;16507;51.046;6.406;2023-08-06T04:02:21;5.63;;;1.20;;
29574;SDS011;16507;51.046;6.406;2023-08-06T04:04:47;7.32;;;1.63;;
29574;SDS011;16507;51.046;6.406;2023-08-06T04:07:13;11.55;;;1.60;;
29574;SDS011;16507;51.046;6.406;2023-08-06T04:09:52;7.20;;;1.80;;
29574;SDS011;16507;51.046;6.406;2023-08-06T04:12:18;10.55;;;1.60;;
29574;SDS011;16507;51.046;6.406;2023-08-06T04:14:44;14.30;;;2.13;;
29574;SDS011;16507;51.046;6.406;2023-08-06T04:17:09;16.45;;;1.40;;
29574;SDS011;16507;51.046;6.406;2023-08-06T04:19:35;14.70;;;1.98;;
29574;SDS011;16507;51.046;6.406;2023-08-06T04:22:00;4.85;;;1.13;;
29574;SDS011;16507;51.046;6.406;2023-08-06T04:24:26;6.68;;;1.17;;
29574;SDS011;16507;51.046;6.406;2023-08-06T04:26:52;7.05;;;1.30;;
29574;SDS011;16507;51.046;6.406;2023-08-06T04:29:17;4.88;;;1.10;;
29574;SDS011;16507;51.046;6.406;2023-08-06T04:31:43;7.18;;;1.30;;
29574;SDS011;16507;51.046;6.406;2023-08-06T04:34:08;1.98;;;1.00;;
29574;SDS011;16507;51.046;6.406;2023-08-06T04:36:34;5.13;;;1.15;;
29574;SDS011;16507;51.046;6.406;2023-08-06T04:39:00;4.75;;;1.08;;
29574;SDS011;16507;51.046;6.406;2023-08-06T04:41:25;8.25;;;1.45;;
29574;SDS011;16507;51.046;6.406;2023-08-06T04:43:51;2.10;;;1.00;;
29574;SDS011;16507;51.046;6.406;2023-08-06T04:46:16;1.85;;;1.40;;
29574;SDS011;16507;51.046;6.406;2023-08-06T04:48:42;21.85;;;1.70;;
29574;SDS011;16507;51.046;6.406;2023-08-06T04:51:08;5.40;;;1.42;;
29574;SDS011;16507;51.046;6.406;2023-08-06T04:53:33;5.55;;;1.45;;
29574;SDS011;16507;51.046;6.406;2023-08-06T04:55:59;3.88;;;1.23;;
29574;SDS011;16507;51.046;6.406;2023-08-06T04:58:24;3.65;;;1.55;;
29574;SDS011;16507;51.046;6.406;2023-08-06T05:00:50;4.85;;;1.50;;
29574;SDS011;16507;51.046;6.406;2023-08-06T05:03:15;5.70;;;1.65;;
29574;SDS011;16507;51.046;6.406;2023-08-06T05:05:45;3.80;;;1.58;;
29574;SDS011;16507;51.046;6.406;2023-08-06T05:08:14;3.72;;;1.33;;
29574;SDS011;16507;51.046;6.406;2023-08-06T05:10:44;2.58;;;1.02;;
29574;SDS011;16507;51.046;6.406;2023-08-06T05:13:10;8.07;;;1.85;;
29574;SDS011;16507;51.046;6.406;2023-08-06T05:15:36;2.67;;;1.20;;
29574;SDS011;16507;51.046;6.406;2023-08-06T05:18:02;4.05;;;1.27;;
29574;SDS011;16507;51.046;6.406;2023-08-06T05:20:27;3.83;;;1.25;;
29574;SDS011;16507;51.046;6.406;2023-08-06T05:22:53;4.00;;;1.10;;
29574;SDS011;16507;51.046;6.406;2023-08-06T05:25:19;3.53;;;1.25;;
29574;SDS011;16507;51.046;6.406;2023-08-06T05:27:45;2.17;;;1.17;;
29574;SDS011;16507;51.046;6.406;2023-08-06T05:30:11;9.65;;;1.15;;
29574;SDS011;16507;51.046;6.406;2023-08-06T05:32:37;1.65;;;1.10;;
29574;SDS011;16507;51.046;6.406;2023-08-06T05:35:02;2.17;;;1.10;;
29574;SDS011;16507;51.046;6.406;2023-08-06T05:37:28;2.72;;;0.80;;
29574;SDS011;16507;51.046;6.406;2023-08-06T05:39:54;5.97;;;0.90;;
29574;SDS011;16507;51.046;6.406;2023-08-06T05:42:19;2.60;;;1.00;;
29574;SDS011;16507;51.046;6.406;2023-08-06T05:44:45;7.10;;;1.00;;
29574;SDS011;16507;51.046;6.406;2023-08-06T05:47:10;5.57;;;1.02;;
29574;SDS011;16507;51.046;6.406;2023-08-06T05:49:36;1.23;;;1.05;;
29574;SDS011;16507;51.046;6.406;2023-08-06T05:52:02;1.95;;;1.25;;
29574;SDS011;16507;51.046;6.406;2023-08-06T05:54:31;7.50;;;1.38;;
29574;SDS011;16507;51.046;6.406;2023-08-06T05:56:56;4.70;;;1.17;;
29574;SDS011;16507;51.046;6.406;2023-08-06T05:59:22;2.35;;;0.88;;
29574;SDS011;16507;51.046;6.406;2023-08-06T06:01:48;2.00;;;1.30;;
29574;SDS011;16507;51.046;6.406;2023-08-06T06:04:13;1.02;;;1.00;;
29574;SDS011;16507;51.046;6.406;2023-08-06T06:06:39;2.22;;;0.80;;
29574;SDS011;16507;51.046;6.406;2023-08-06T06:09:06;2.22;;;0.90;;
29574;SDS011;16507;51.046;6.406;2023-08-06T06:11:32;7.07;;;1.15;;
29574;SDS011;16507;51.046;6.406;2023-08-06T06:13:57;1.33;;;0.70;;
29574;SDS011;16507;51.046;6.406;2023-08-06T06:16:23;1.60;;;0.73;;
29574;SDS011;16507;51.046;6.406;2023-08-06T06:18:49;1.52;;;0.80;;
29574;SDS011;16507;51.046;6.406;2023-08-06T06:21:14;1.75;;;0.65;;
29574;SDS011;16507;51.046;6.406;2023-08-06T06:23:40;0.80;;;0.60;;
29574;SDS011;16507;51.046;6.406;2023-08-06T06:26:06;2.63;;;0.73;;
29574;SDS011;16507;51.046;6.406;2023-08-06T06:28:31;0.65;;;0.50;;
29574;SDS011;16507;51.046;6.406;2023-08-06T06:31:00;1.85;;;0.60;;
29574;SDS011;16507;51.046;6.406;2023-08-06T06:33:26;0.75;;;0.52;;
29574;SDS011;16507;51.046;6.406;2023-08-06T06:35:52;2.28;;;0.50;;
29574;SDS011;16507;51.046;6.406;2023-08-06T06:38:18;0.98;;;0.68;;
29574;SDS011;16507;51.046;6.406;2023-08-06T06:40:43;0.40;;;0.40;;
29574;SDS011;16507;51.046;6.406;2023-08-06T06:43:18;0.40;;;0.40;;
29574;SDS011;16507;51.046;6.406;2023-08-06T06:45:43;0.88;;;0.60;;
29574;SDS011;16507;51.046;6.406;2023-08-06T06:48:09;0.38;;;0.35;;
29574;SDS011;16507;51.046;6.406;2023-08-06T06:50:35;0.60;;;0.60;;
29574;SDS011;16507;51.046;6.406;2023-08-06T06:53:01;2.55;;;0.77;;
29574;SDS011;16507;51.046;6.406;2023-08-06T06:55:27;0.88;;;0.80;;
29574;SDS011;16507;51.046;6.406;2023-08-06T06:57:52;1.25;;;0.60;;
29574;SDS011;16507;51.046;6.406;2023-08-06T07:00:18;0.82;;;0.52;;
29574;SDS011;16507;51.046;6.406;2023-08-06T07:02:44;3.67;;;0.60;;
29574;SDS011;16507;51.046;6.406;2023-08-06T07:05:09;0.70;;;0.50;;
29574;SDS011;16507;51.046;6.406;2023-08-06T07:07:35;1.33;;;0.63;;
29574;SDS011;16507;51.046;6.406;2023-08-06T07:10:02;0.80;;;0.30;;
29574;SDS011;16507;51.046;6.406;2023-08-06T07:12:28;0.30;;;0.30;;
29574;SDS011;16507;51.046;6.406;2023-08-06T07:14:53;1.98;;;0.40;;
29574;SDS011;16507;51.046;6.406;2023-08-06T07:17:19;0.35;;;0.20;;
29574;SDS011;16507;51.046;6.406;2023-08-06T07:19:45;0.43;;;0.20;;
29574;SDS011;16507;51.046;6.406;2023-08-06T07:22:10;1.10;;;0.20;;
29574;SDS011;16507;51.046;6.406;2023-08-06T07:24:36;1.88;;;0.25;;
29574;SDS011;16507;51.046;6.406;2023-08-06T07:27:02;0.45;;;0.30;;
29574;SDS011;16507;51.046;6.406;2023-08-06T07:29:28;0.52;;;0.38;;
29574;SDS011;16507;51.046;6.406;2023-08-06T07:31:53;1.50;;;0.40;;
29574;SDS011;16507;51.046;6.406;2023-08-06T07:34:20;1.08;;;0.50;;
29574;SDS011;16507;51.046;6.406;2023-08-06T07:36:47;0.98;;;0.50;;
29574;SDS011;16507;51.046;6.406;2023-08-06T07:39:13;0.60;;;0.60;;
29574;SDS011;16507;51.046;6.406;2023-08-06T07:41:38;0.65;;;0.50;;
29574;SDS011;16507;51.046;6.406;2023-08-06T07:44:04;0.70;;;0.70;;
29574;SDS011;16507;51.046;6.406;2023-08-06T07:46:30;0.63;;;0.63;;
29574;SDS011;16507;51.046;6.406;2023-08-06T07:48:55;1.52;;;0.70;;
29574;SDS011;16507;51.046;6.406;2023-08-06T07:51:21;1.05;;;0.55;;
29574;SDS011;16507;51.046;6.406;2023-08-06T07:53:46;0.60;;;0.60;;
29574;SDS011;16507;51.046;6.406;2023-08-06T07:56:12;2.50;;;0.80;;
29574;SDS011;16507;51.046;6.406;2023-08-06T07:58:38;1.13;;;0.70;;
29574;SDS011;16507;51.046;6.406;2023-08-06T08:01:03;0.75;;;0.68;;
29574;SDS011;16507;51.046;6.406;2023-08-06T08:03:30;0.80;;;0.80;;
29574;SDS011;16507;51.046;6.406;2023-08-06T08:05:56;1.02;;;0.90;;
29574;SDS011;16507;51.046;6.406;2023-08-06T08:08:22;1.83;;;0.80;;
29574;SDS011;16507;51.046;6.406;2023-08-06T08:10:48;2.15;;;1.10;;
29574;SDS011;16507;51.046;6.406;2023-08-06T08:13:14;3.92;;;1.73;;
29574;SDS011;16507;51.046;6.406;2023-08-06T08:15:39;1.95;;;1.48;;
29574;SDS011;16507;51.046;6.406;2023-08-06T08:18:05;1.40;;;1.13;;
29574;SDS011;16507;51.046;6.406;2023-08-06T08:20:31;2.00;;;1.42;;
29574;SDS011;16507;51.046;6.406;2023-08-06T08:23:00;4.15;;;1.60;;
29574;SDS011;16507;51.046;6.406;2023-08-06T08:25:27;1.85;;;1.75;;
29574;SDS011;16507;51.046;6.406;2023-08-06T08:27:53;2.75;;;2.05;;
29574;SDS011;16507;51.046;6.406;2023-08-06T08:30:19;1.88;;;1.63;;
29574;SDS011;16507;51.046;6.406;2023-08-06T08:32:46;1.30;;;1.20;;
29574;SDS011;16507;51.046;6.406;2023-08-06T08:35:12;1.08;;;1.02;;
29574;SDS011;16507;51.046;6.406;2023-08-06T08:37:38;2.15;;;1.20;;
29574;SDS011;16507;51.046;6.406;2023-08-06T08:40:05;1.85;;;1.00;;
29574;SDS011;16507;51.046;6.406;2023-08-06T08:42:31;1.38;;;1.27;;
29574;SDS011;16507;51.046;6.406;2023-08-06T08:44:57;1.00;;;1.00;;
29574;SDS011;16507;51.046;6.406;2023-08-06T08:47:23;1.35;;;1.10;;
29574;SDS011;16507;51.046;6.406;2023-08-06T08:49:52;0.80;;;0.80;;
29574;SDS011;16507;51.046;6.406;2023-08-06T08:52:20;0.80;;;0.80;;
29574;SDS011;16507;51.046;6.406;2023-08-06T08:54:47;2.17;;;0.70;;
29574;SDS011;16507;51.046;6.406;2023-08-06T08:57:18;0.85;;;0.60;;
29574;SDS011;16507;51.046;6.406;2023-08-06T08:59:45;0.82;;;0.60;;
29574;SDS011;16507;51.046;6.406;2023-08-06T09:02:11;0.50;;;0.50;;
29574;SDS011;16507;51.046;6.406;2023-08-06T09:04:40;1.13;;;0.50;;
29574;SDS011;16507;51.046;6.406;2023-08-06T09:07:06;1.23;;;0.50;;
29574;SDS011;16507;51.046;6.406;2023-08-06T09:09:34;1.17;;;0.73;;
29574;SDS011;16507;51.046;6.406;2023-08-06T09:12:11;1.38;;;0.80;;
29574;SDS011;16507;51.046;6.406;2023-08-06T09:14:39;1.17;;;0.80;;
29574;SDS011;16507;51.046;6.406;2023-08-06T09:17:05;0.63;;;0.63;;
29574;SDS011;16507;51.046;6.406;2023-08-06T09:19:31;1.00;;;0.90;;
29574;SDS011;16507;51.046;6.406;2023-08-06T09:21:59;1.10;;;0.60;;
29574;SDS011;16507;51.046;6.406;2023-08-06T09:24:24;0.73;;;0.50;;
29574;SDS011;16507;51.046;6.406;2023-08-06T09:26:53;0.63;;;0.60;;
29574;SDS011;16507;51.046;6.406;2023-08-06T09:29:19;2.42;;;0.80;;
29574;SDS011;16507;51.046;6.406;2023-08-06T09:31:46;0.80;;;0.80;;
29574;SDS011;16507;51.046;6.406;2023-08-06T09:34:20;1.83;;;1.20;;
29574;SDS011;16507;51.046;6.406;2023-08-06T09:39:14;2.13;;;1.90;;
29574;SDS011;16507;51.046;6.406;2023-08-06T09:41:41;4.13;;;1.92;;
29574;SDS011;16507;51.046;6.406;2023-08-06T09:44:17;1.70;;;1.60;;
29574;SDS011;16507;51.046;6.406;2023-08-06T09:46:53;1.40;;;1.30;;
29574;SDS011;16507;51.046;6.406;2023-08-06T09:49:26;0.85;;;0.85;;
29574;SDS011;16507;51.046;6.406;2023-08-06T09:51:54;1.40;;;1.30;;
29574;SDS011;16507;51.046;6.406;2023-08-06T09:54:23;1.25;;;1.15;;
29574;SDS011;16507;51.046;6.406;2023-08-06T09:56:49;0.90;;;0.90;;
29574;SDS011;16507;51.046;6.406;2023-08-06T09:59:15;1.30;;;1.10;;
29574;SDS011;16507;51.046;6.406;2023-08-06T10:01:42;2.67;;;1.55;;
29574;SDS011;16507;51.046;6.406;2023-08-06T10:04:09;1.80;;;1.70;;
29574;SDS011;16507;51.046;6.406;2023-08-06T10:06:37;5.53;;;1.63;;
29574;SDS011;16507;51.046;6.406;2023-08-06T10:09:03;2.75;;;2.00;;
29574;SDS011;16507;51.046;6.406;2023-08-06T10:11:30;2.65;;;2.40;;
29574;SDS011;16507;51.046;6.406;2023-08-06T10:14:12;2.13;;;1.63;;
29574;SDS011;16507;51.046;6.406;2023-08-06T10:16:41;4.15;;;2.60;;
29574;SDS011;16507;51.046;6.406;2023-08-06T10:19:08;5.68;;;2.70;;
29574;SDS011;16507;51.046;6.406;2023-08-06T10:21:35;3.08;;;2.38;;
29574;SDS011;16507;51.046;6.406;2023-08-06T10:24:00;5.00;;;2.40;;
29574;SDS011;16507;51.046;6.406;2023-08-06T10:26:28;3.90;;;1.85;;
29574;SDS011;16507;51.046;6.406;2023-08-06T10:28:54;2.95;;;2.65;;
29574;SDS011;16507;51.046;6.406;2023-08-06T10:31:47;5.57;;;2.45;;
29574;SDS011;16507;51.046;6.406;2023-08-06T10:34:19;4.45;;;2.50;;
29574;SDS011;16507;51.046;6.406;2023-08-06T10:36:45;7.65;;;2.50;;
29574;SDS011;16507;51.046;6.406;2023-08-06T10:39:13;8.27;;;2.22;;
29574;SDS011;16507;51.046;6.406;2023-08-06T10:41:39;4.70;;;2.30;;
29574;SDS011;16507;51.046;6.406;2023-08-06T10:44:08;3.55;;;2.40;;
29574;SDS011;16507;51.046;6.406;2023-08-06T10:46:34;6.63;;;2.75;;
29574;SDS011;16507;51.046;6.406;2023-08-06T10:49:03;5.88;;;2.25;;
29574;SDS011;16507;51.046;6.406;2023-08-06T10:51:29;4.18;;;2.60;;
29574;SDS011;16507;51.046;6.406;2023-08-06T10:53:55;7.30;;;2.60;;
29574;SDS011;16507;51.046;6.406;2023-08-06T10:56:23;9.43;;;2.70;;
29574;SDS011;16507;51.046;6.406;2023-08-06T10:58:53;4.95;;;2.33;;
29574;SDS011;16507;51.046;6.406;2023-08-06T11:01:21;3.95;;;2.10;;
29574;SDS011;16507;51.046;6.406;2023-08-06T11:03:53;5.40;;;2.35;;
29574;SDS011;16507;51.046;6.406;2023-08-06T11:06:20;4.70;;;2.15;;
29574;SDS011;16507;51.046;6.406;2023-08-06T11:08:48;4.53;;;1.65;;
29574;SDS011;16507;51.046;6.406;2023-08-06T11:11:15;5.50;;;2.10;;
29574;SDS011;16507;51.046;6.406;2023-08-06T11:13:42;5.50;;;1.75;;
29574;SDS011;16507;51.046;6.406;2023-08-06T11:16:19;4.60;;;2.10;;
29574;SDS011;16507;51.046;6.406;2023-08-06T11:18:48;5.03;;;1.95;;
29574;SDS011;16507;51.046;6.406;2023-08-06T11:21:14;2.50;;;1.80;;
29574;SDS011;16507;51.046;6.406;2023-08-06T11:23:40;16.15;;;6.30;;
29574;SDS011;16507;51.046;6.406;2023-08-06T11:26:06;4.30;;;2.30;;
29574;SDS011;16507;51.046;6.406;2023-08-06T11:28:32;3.80;;;1.33;;
29574;SDS011;16507;51.046;6.406;2023-08-06T11:30:58;2.88;;;1.20;;
29574;SDS011;16507;51.046;6.406;2023-08-06T11:33:27;3.20;;;1.20;;
29574;SDS011;16507;51.046;6.406;2023-08-06T11:35:56;2.35;;;1.23;;
29574;SDS011;16507;51.046;6.406;2023-08-06T11:38:29;5.32;;;1.33;;
29574;SDS011;16507;51.046;6.406;2023-08-06T11:43:21;1.58;;;1.02;;
29574;SDS011;16507;51.046;6.406;2023-08-06T11:45:47;4.38;;;1.08;;
29574;SDS011;16507;51.046;6.406;2023-08-06T11:48:14;2.72;;;1.40;;
29574;SDS011;16507;51.046;6.406;2023-08-06T11:50:39;3.75;;;1.90;;
29574;SDS011;16507;51.046;6.406;2023-08-06T11:53:05;4.88;;;1.58;;
29574;SDS011;16507;51.046;6.406;2023-08-06T11:55:31;3.00;;;1.20;;
29574;SDS011;16507;51.046;6.406;2023-08-06T11:57:57;3.83;;;1.10;;
29574;SDS011;16507;51.046;6.406;2023-08-06T12:00:24;1.63;;;0.90;;
29574;SDS011;16507;51.046;6.406;2023-08-06T12:02:50;4.18;;;1.27;;
29574;SDS011;16507;51.046;6.406;2023-08-06T12:05:18;4.22;;;1.27;;
29574;SDS011;16507;51.046;6.406;2023-08-06T12:07:55;3.80;;;1.50;;
29574;SDS011;16507;51.046;6.406;2023-08-06T12:10:22;2.85;;;1.00;;
29574;SDS011;16507;51.046;6.406;2023-08-06T12:12:53;6.25;;;1.70;;
29574;SDS011;16507;51.046;6.406;2023-08-06T12:15:18;2.58;;;1.30;;
29574;SDS011;16507;51.046;6.406;2023-08-06T12:17:44;4.65;;;1.38;;
29574;SDS011;16507;51.046;6.406;2023-08-06T12:20:10;6.65;;;1.50;;
29574;SDS011;16507;51.046;6.406;2023-08-06T12:22:37;3.47;;;1.48;;
29574;SDS011;16507;51.046;6.406;2023-08-06T12:25:05;3.50;;;1.55;;
29574;SDS011;16507;51.046;6.406;2023-08-06T12:27:41;5.57;;;1.45;;
29574;SDS011;16507;51.046;6.406;2023-08-06T12:30:09;4.05;;;1.80;;
29574;SDS011;16507;51.046;6.406;2023-08-06T12:32:36;3.38;;;1.40;;
29574;SDS011;16507;51.046;6.406;2023-08-06T12:35:03;5.72;;;1.70;;
29574;SDS011;16507;51.046;6.406;2023-08-06T12:37:30;4.28;;;1.98;;
29574;SDS011;16507;51.046;6.406;2023-08-06T12:39:55;4.28;;;1.80;;
29574;SDS011;16507;51.046;6.406;2023-08-06T12:42:21;2.97;;;2.00;;
29574;SDS011;16507;51.046;6.406;2023-08-06T12:44:49;3.25;;;1.63;;
29574;SDS011;16507;51.046;6.406;2023-08-06T12:47:16;5.72;;;2.40;;
29574;SDS011;16507;51.046;6.406;2023-08-06T12:49:42;6.78;;;2.22;;
29574;SDS011;16507;51.046;6.406;2023-08-06T12:52:07;4.35;;;2.80;;
29574;SDS011;16507;51.046;6.406;2023-08-06T12:54:34;5.30;;;3.03;;
29574;SDS011;16507;51.046;6.406;2023-08-06T12:57:02;8.13;;;3.50;;
29574;SDS011;16507;51.046;6.406;2023-08-06T12:59:28;5.65;;;3.00;;
29574;SDS011;16507;51.046;6.406;2023-08-06T13:01:54;7.32;;;3.20;;
29574;SDS011;16507;51.046;6.406;2023-08-06T13:04:21;4.68;;;2.47;;
29574;SDS011;16507;51.046;6.406;2023-08-06T13:06:46;8.63;;;2.70;;
29574;SDS011;16507;51.046;6.406;2023-08-06T13:09:12;5.03;;;2.33;;
29574;SDS011;16507;51.046;6.406;2023-08-06T13:11:39;5.00;;;2.60;;
29574;SDS011;16507;51.046;6.406;2023-08-06T13:14:06;6.38;;;2.90;;
29574;SDS011;16507;51.046;6.406;2023-08-06T13:16:33;7.72;;;3.42;;
29574;SDS011;16507;51.046;6.406;2023-08-06T13:19:00;7.38;;;2.83;;
29574;SDS011;16507;51.046;6.406;2023-08-06T13:21:33;6.13;;;2.53;;
29574;SDS011;16507;51.046;6.406;2023-08-06T13:24:03;3.10;;;1.92;;
29574;SDS011;16507;51.046;6.406;2023-08-06T13:26:29;4.00;;;1.63;;
29574;SDS011;16507;51.046;6.406;2023-08-06T13:28:56;2.40;;;2.03;;
29574;SDS011;16507;51.046;6.406;2023-08-06T13:31:22;5.05;;;1.90;;
29574;SDS011;16507;51.046;6.406;2023-08-06T13:33:48;3.90;;;1.40;;
29574;SDS011;16507;51.046;6.406;2023-08-06T13:36:15;5.35;;;1.50;;
29574;SDS011;16507;51.046;6.406;2023-08-06T13:38:41;6.57;;;1.30;;
29574;SDS011;16507;51.046;6.406;2023-08-06T13:41:07;3.92;;;1.45;;
29574;SDS011;16507;51.046;6.406;2023-08-06T13:43:33;4.72;;;1.55;;
29574;SDS011;16507;51.046;6.406;2023-08-06T13:45:58;7.32;;;2.00;;
29574;SDS011;16507;51.046;6.406;2023-08-06T13:48:24;6.53;;;1.67;;
29574;SDS011;16507;51.046;6.406;2023-08-06T13:50:49;4.65;;;1.23;;
29574;SDS011;16507;51.046;6.406;2023-08-06T13:53:15;3.53;;;0.90;;
29574;SDS011;16507;51.046;6.406;2023-08-06T13:55:41;5.40;;;0.98;;
29574;SDS011;16507;51.046;6.406;2023-08-06T13:58:06;6.45;;;1.08;;
29574;SDS011;16507;51.046;6.406;2023-08-06T14:00:32;4.50;;;1.10;;
29574;SDS011;16507;51.046;6.406;2023-08-06T14:02:57;5.55;;;0.90;;
29574;SDS011;16507;51.046;6.406;2023-08-06T14:05:23;8.25;;;0.90;;
29574;SDS011;16507;51.046;6.406;2023-08-06T14:07:49;4.82;;;1.05;;
29574;SDS011;16507;51.046;6.406;2023-08-06T14:10:14;6.25;;;0.88;;
29574;SDS011;16507;51.046;6.406;2023-08-06T14:12:40;4.47;;;0.93;;
29574;SDS011;16507;51.046;6.406;2023-08-06T14:15:06;3.58;;;0.90;;
29574;SDS011;16507;51.046;6.406;2023-08-06T14:17:32;3.35;;;0.68;;
29574;SDS011;16507;51.046;6.406;2023-08-06T14:19:57;2.60;;;0.77;;
29574;SDS011;16507;51.046;6.406;2023-08-06T14:22:23;2.45;;;0.95;;
29574;SDS011;16507;51.046;6.406;2023-08-06T14:24:49;2.03;;;0.68;;
29574;SDS011;16507;51.046;6.406;2023-08-06T14:27:14;4.13;;;0.77;;
29574;SDS011;16507;51.046;6.406;2023-08-06T14:29:40;2.30;;;0.70;;
29574;SDS011;16507;51.046;6.406;2023-08-06T14:32:06;0.90;;;0.50;;
29574;SDS011;16507;51.046;6.406;2023-08-06T14:34:31;2.15;;;0.40;;
29574;SDS011;16507;51.046;6.406;2023-08-06T14:36:57;2.20;;;0.50;;
29574;SDS011;16507;51.046;6.406;2023-08-06T14:39:24;1.25;;;0.52;;
29574;SDS011;16507;51.046;6.406;2023-08-06T14:41:49;1.17;;;0.40;;
29574;SDS011;16507;51.046;6.406;2023-08-06T14:44:15;2.67;;;0.90;;
29574;SDS011;16507;51.046;6.406;2023-08-06T14:46:41;1.48;;;0.70;;
29574;SDS011;16507;51.046;6.406;2023-08-06T14:49:06;1.02;;;0.57;;
29574;SDS011;16507;51.046;6.406;2023-08-06T14:51:32;3.97;;;0.43;;
29574;SDS011;16507;51.046;6.406;2023-08-06T14:53:58;1.67;;;0.90;;
29574;SDS011;16507;51.046;6.406;2023-08-06T14:56:23;3.13;;;0.70;;